sensor_id;sensor_type;location;lat;lon;timestamp;P1;durP1;ratioP1;P2;durP2;ratioP2
63008;SDS011;49099;28.428;-16.488;2023-03-03T00:00:58;5.70;;;1.20;;
63008;SDS011;49099;28.428;-16.488;2023-03-03T00:03:25;4.45;;;1.13;;
63008;SDS011;49099;28.428;-16.488;2023-03-03T00:05:53;6.47;;;1.20;;
63008;SDS011;49099;28.428;-16.488;2023-03-03T00:08:20;3.47;;;1.20;;
63008;SDS011;49099;28.428;-16.488;2023-03-03T00:10:48;3.42;;;1.00;;
63008;SDS011;49099;28.428;-16.488;2023-03-03T00:13:17;2.72;;;0.90;;
63008;SDS011;49099;28.428;-16.488;2023-03-03T00:15:46;3.75;;;0.95;;
63008;SDS011;49099;28.428;-16.488;2023-03-03T00:18:48;5.28;;;1.10;;
63008;SDS011;49099;28.428;-16.488;2023-03-03T00:27:09;5.13;;;0.90;;
63008;SDS011;49099;28.428;-16.488;2023-03-03T00:30:02;4.22;;;1.10;;
63008;SDS011;49099;28.428;-16.488;2023-03-03T00:32:51;3.90;;;0.90;;
63008;SDS011;49099;28.428;-16.488;2023-03-03T00:35:28;5.15;;;0.90;;
63008;SDS011;49099;28.428;-16.488;2023-03-03T00:38:15;3.47;;;1.20;;
63008;SDS011;49099;28.428;-16.488;2023-03-03T00:40:44;3.35;;;0.90;;
63008;SDS011;49099;28.428;-16.488;2023-03-03T00:43:17;3.17;;;0.80;;
63008;SDS011;49099;28.428;-16.488;2023-03-03T00:45:49;3.20;;;1.00;;
63008;SDS011;49099;28.428;-16.488;2023-03-03T00:48:24;3.75;;;1.20;;
63008;SDS011;49099;28.428;-16.488;2023-03-03T00:50:53;2.10;;;0.80;;
63008;SDS011;49099;28.428;-16.488;2023-03-03T00:53:22;2.55;;;0.80;;
63008;SDS011;49099;28.428;-16.488;2023-03-03T00:55:51;3.35;;;0.80;;
63008;SDS011;49099;28.428;-16.488;2023-03-03T00:58:19;2.80;;;0.90;;
63008;SDS011;49099;28.428;-16.488;2023-03-03T01:00:48;2.67;;;0.93;;
63008;SDS011;49099;28.428;-16.488;2023-03-03T01:03:18;3.80;;;1.10;;
63008;SDS011;49099;28.428;-16.488;2023-03-03T01:05:47;6.13;;;1.10;;
63008;SDS011;49099;28.428;-16.488;2023-03-03T01:08:16;6.78;;;1.77;;
63008;SDS011;49099;28.428;-16.488;2023-03-03T01:10:48;5.05;;;1.48;;
63008;SDS011;49099;28.428;-16.488;2023-03-03T01:13:27;3.17;;;1.20;;
63008;SDS011;49099;28.428;-16.488;2023-03-03T01:15:58;5.32;;;1.40;;
63008;SDS011;49099;28.428;-16.488;2023-03-03T01:18:26;5.63;;;1.30;;
63008;SDS011;49099;28.428;-16.488;2023-03-03T01:20:53;7.18;;;1.30;;
63008;SDS011;49099;28.428;-16.488;2023-03-03T01:23:21;4.18;;;1.02;;
63008;SDS011;49099;28.428;-16.488;2023-03-03T01:25:48;4.82;;;1.08;;
63008;SDS011;49099;28.428;-16.488;2023-03-03T01:28:15;7.47;;;1.17;;
63008;SDS011;49099;28.428;-16.488;2023-03-03T01:30:42;5.05;;;1.30;;
63008;SDS011;49099;28.428;-16.488;2023-03-03T01:33:09;3.53;;;0.95;;
63008;SDS011;49099;28.428;-16.488;2023-03-03T01:35:36;5.75;;;1.15;;
63008;SDS011;49099;28.428;-16.488;2023-03-03T01:38:06;3.30;;;0.98;;
63008;SDS011;49099;28.428;-16.488;2023-03-03T01:40:33;3.53;;;1.00;;
63008;SDS011;49099;28.428;-16.488;2023-03-03T01:43:00;7.05;;;1.02;;
63008;SDS011;49099;28.428;-16.488;2023-03-03T01:45:30;3.42;;;1.00;;
63008;SDS011;49099;28.428;-16.488;2023-03-03T01:50:53;4.45;;;0.98;;
63008;SDS011;49099;28.428;-16.488;2023-03-03T01:53:27;2.95;;;0.90;;
63008;SDS011;49099;28.428;-16.488;2023-03-03T01:56:00;2.58;;;0.70;;
63008;SDS011;49099;28.428;-16.488;2023-03-03T02:01:21;3.33;;;0.80;;
63008;SDS011;49099;28.428;-16.488;2023-03-03T02:03:50;3.33;;;0.70;;
63008;SDS011;49099;28.428;-16.488;2023-03-03T02:06:19;1.85;;;0.70;;
63008;SDS011;49099;28.428;-16.488;2023-03-03T02:11:39;2.10;;;0.80;;
63008;SDS011;49099;28.428;-16.488;2023-03-03T02:14:10;2.70;;;0.80;;
63008;SDS011;49099;28.428;-16.488;2023-03-03T02:16:38;2.53;;;0.82;;
63008;SDS011;49099;28.428;-16.488;2023-03-03T02:19:08;2.90;;;0.60;;
63008;SDS011;49099;28.428;-16.488;2023-03-03T02:21:44;3.78;;;0.90;;
63008;SDS011;49099;28.428;-16.488;2023-03-03T02:24:20;3.15;;;0.80;;
63008;SDS011;49099;28.428;-16.488;2023-03-03T02:26:55;2.10;;;0.80;;
63008;SDS011;49099;28.428;-16.488;2023-03-03T02:29:22;1.67;;;0.60;;
63008;SDS011;49099;28.428;-16.488;2023-03-03T02:31:49;4.13;;;0.93;;
63008;SDS011;49099;28.428;-16.488;2023-03-03T02:34:16;4.20;;;0.90;;
63008;SDS011;49099;28.428;-16.488;2023-03-03T02:36:43;6.05;;;1.20;;
63008;SDS011;49099;28.428;-16.488;2023-03-03T02:39:21;4.47;;;1.10;;
63008;SDS011;49099;28.428;-16.488;2023-03-03T02:41:52;3.28;;;1.00;;
63008;SDS011;49099;28.428;-16.488;2023-03-03T02:44:49;3.53;;;0.75;;
63008;SDS011;49099;28.428;-16.488;2023-03-03T02:47:16;4.13;;;0.95;;
63008;SDS011;49099;28.428;-16.488;2023-03-03T02:49:43;1.52;;;0.60;;
63008;SDS011;49099;28.428;-16.488;2023-03-03T02:52:11;4.38;;;0.98;;
63008;SDS011;49099;28.428;-16.488;2023-03-03T02:54:40;3.78;;;0.80;;
63008;SDS011;49099;28.428;-16.488;2023-03-03T02:57:07;3.13;;;0.70;;
63008;SDS011;49099;28.428;-16.488;2023-03-03T02:59:34;3.40;;;0.70;;
63008;SDS011;49099;28.428;-16.488;2023-03-03T03:02:01;2.72;;;0.80;;
63008;SDS011;49099;28.428;-16.488;2023-03-03T03:04:28;3.65;;;0.80;;
63008;SDS011;49099;28.428;-16.488;2023-03-03T03:06:55;2.05;;;0.70;;
63008;SDS011;49099;28.428;-16.488;2023-03-03T03:09:23;6.82;;;1.00;;
63008;SDS011;49099;28.428;-16.488;2023-03-03T03:11:51;3.40;;;0.80;;
63008;SDS011;49099;28.428;-16.488;2023-03-03T03:14:18;2.15;;;0.60;;
63008;SDS011;49099;28.428;-16.488;2023-03-03T03:16:46;2.65;;;0.80;;
63008;SDS011;49099;28.428;-16.488;2023-03-03T03:19:13;1.67;;;0.70;;
63008;SDS011;49099;28.428;-16.488;2023-03-03T03:21:40;3.83;;;0.60;;
63008;SDS011;49099;28.428;-16.488;2023-03-03T03:24:07;2.65;;;0.77;;
63008;SDS011;49099;28.428;-16.488;2023-03-03T03:26:35;3.40;;;0.90;;
63008;SDS011;49099;28.428;-16.488;2023-03-03T03:29:02;3.30;;;0.80;;
63008;SDS011;49099;28.428;-16.488;2023-03-03T03:31:29;2.50;;;0.80;;
63008;SDS011;49099;28.428;-16.488;2023-03-03T03:33:57;2.28;;;0.80;;
63008;SDS011;49099;28.428;-16.488;2023-03-03T03:36:26;2.47;;;0.77;;
63008;SDS011;49099;28.428;-16.488;2023-03-03T03:38:53;2.08;;;0.75;;
63008;SDS011;49099;28.428;-16.488;2023-03-03T03:41:21;4.53;;;0.80;;
63008;SDS011;49099;28.428;-16.488;2023-03-03T03:43:48;4.50;;;0.95;;
63008;SDS011;49099;28.428;-16.488;2023-03-03T03:46:15;4.93;;;0.95;;
63008;SDS011;49099;28.428;-16.488;2023-03-03T03:48:42;1.67;;;0.70;;
63008;SDS011;49099;28.428;-16.488;2023-03-03T03:51:10;3.65;;;0.90;;
63008;SDS011;49099;28.428;-16.488;2023-03-03T03:53:38;7.13;;;1.20;;
63008;SDS011;49099;28.428;-16.488;2023-03-03T03:56:06;5.82;;;1.10;;
63008;SDS011;49099;28.428;-16.488;2023-03-03T03:58:33;4.22;;;1.10;;
63008;SDS011;49099;28.428;-16.488;2023-03-03T04:01:01;3.78;;;1.02;;
63008;SDS011;49099;28.428;-16.488;2023-03-03T04:03:29;3.85;;;1.20;;
63008;SDS011;49099;28.428;-16.488;2023-03-03T04:05:57;5.65;;;1.02;;
63008;SDS011;49099;28.428;-16.488;2023-03-03T04:08:24;4.68;;;1.00;;
63008;SDS011;49099;28.428;-16.488;2023-03-03T04:10:51;4.80;;;1.20;;
63008;SDS011;49099;28.428;-16.488;2023-03-03T04:13:18;5.53;;;1.00;;
63008;SDS011;49099;28.428;-16.488;2023-03-03T04:15:45;5.40;;;1.23;;
63008;SDS011;49099;28.428;-16.488;2023-03-03T04:18:13;4.57;;;1.40;;
63008;SDS011;49099;28.428;-16.488;2023-03-03T04:20:40;7.22;;;1.20;;
63008;SDS011;49099;28.428;-16.488;2023-03-03T04:23:07;6.85;;;1.38;;
63008;SDS011;49099;28.428;-16.488;2023-03-03T04:25:34;7.10;;;1.25;;
63008;SDS011;49099;28.428;-16.488;2023-03-03T04:28:01;5.53;;;1.17;;
63008;SDS011;49099;28.428;-16.488;2023-03-03T04:30:30;4.22;;;1.00;;
63008;SDS011;49099;28.428;-16.488;2023-03-03T04:32:58;2.92;;;0.80;;
63008;SDS011;49099;28.428;-16.488;2023-03-03T04:35:25;5.32;;;1.00;;
63008;SDS011;49099;28.428;-16.488;2023-03-03T04:37:52;5.68;;;0.90;;
63008;SDS011;49099;28.428;-16.488;2023-03-03T04:40:19;4.97;;;1.27;;
63008;SDS011;49099;28.428;-16.488;2023-03-03T04:42:47;5.80;;;1.15;;
63008;SDS011;49099;28.428;-16.488;2023-03-03T04:45:14;3.50;;;0.98;;
63008;SDS011;49099;28.428;-16.488;2023-03-03T04:47:41;4.80;;;1.20;;
63008;SDS011;49099;28.428;-16.488;2023-03-03T04:50:09;4.30;;;1.10;;
63008;SDS011;49099;28.428;-16.488;2023-03-03T04:52:37;4.03;;;0.98;;
63008;SDS011;49099;28.428;-16.488;2023-03-03T04:55:04;3.38;;;0.80;;
63008;SDS011;49099;28.428;-16.488;2023-03-03T04:57:35;4.32;;;1.10;;
63008;SDS011;49099;28.428;-16.488;2023-03-03T05:00:04;4.93;;;1.00;;
63008;SDS011;49099;28.428;-16.488;2023-03-03T05:02:32;3.50;;;0.98;;
63008;SDS011;49099;28.428;-16.488;2023-03-03T05:04:59;6.63;;;0.90;;
63008;SDS011;49099;28.428;-16.488;2023-03-03T05:07:26;3.10;;;0.90;;
63008;SDS011;49099;28.428;-16.488;2023-03-03T05:09:54;3.72;;;0.95;;
63008;SDS011;49099;28.428;-16.488;2023-03-03T05:12:21;3.85;;;1.20;;
63008;SDS011;49099;28.428;-16.488;2023-03-03T05:14:48;4.47;;;1.15;;
63008;SDS011;49099;28.428;-16.488;2023-03-03T05:17:15;2.47;;;0.90;;
63008;SDS011;49099;28.428;-16.488;2023-03-03T05:19:42;4.50;;;1.40;;
63008;SDS011;49099;28.428;-16.488;2023-03-03T05:22:09;2.72;;;0.85;;
63008;SDS011;49099;28.428;-16.488;2023-03-03T05:24:36;3.60;;;1.00;;
63008;SDS011;49099;28.428;-16.488;2023-03-03T05:27:04;5.47;;;1.00;;
63008;SDS011;49099;28.428;-16.488;2023-03-03T05:29:31;3.28;;;0.85;;
63008;SDS011;49099;28.428;-16.488;2023-03-03T05:31:59;2.10;;;0.90;;
63008;SDS011;49099;28.428;-16.488;2023-03-03T05:34:26;4.45;;;1.10;;
63008;SDS011;49099;28.428;-16.488;2023-03-03T05:36:53;3.55;;;1.10;;
63008;SDS011;49099;28.428;-16.488;2023-03-03T05:39:21;5.30;;;1.00;;
63008;SDS011;49099;28.428;-16.488;2023-03-03T05:41:48;4.05;;;1.30;;
63008;SDS011;49099;28.428;-16.488;2023-03-03T05:44:16;6.93;;;1.10;;
63008;SDS011;49099;28.428;-16.488;2023-03-03T05:46:45;3.92;;;1.25;;
63008;SDS011;49099;28.428;-16.488;2023-03-03T05:49:13;3.60;;;0.98;;
63008;SDS011;49099;28.428;-16.488;2023-03-03T05:51:40;3.65;;;1.10;;
63008;SDS011;49099;28.428;-16.488;2023-03-03T05:54:07;2.67;;;0.93;;
63008;SDS011;49099;28.428;-16.488;2023-03-03T05:56:34;2.60;;;0.95;;
63008;SDS011;49099;28.428;-16.488;2023-03-03T05:59:02;3.55;;;0.80;;
63008;SDS011;49099;28.428;-16.488;2023-03-03T06:01:29;5.78;;;1.00;;
63008;SDS011;49099;28.428;-16.488;2023-03-03T06:03:56;5.07;;;0.70;;
63008;SDS011;49099;28.428;-16.488;2023-03-03T06:06:23;6.32;;;1.20;;
63008;SDS011;49099;28.428;-16.488;2023-03-03T06:08:50;1.55;;;0.70;;
63008;SDS011;49099;28.428;-16.488;2023-03-03T06:11:22;4.10;;;1.10;;
63008;SDS011;49099;28.428;-16.488;2023-03-03T06:13:49;3.25;;;0.85;;
63008;SDS011;49099;28.428;-16.488;2023-03-03T06:16:17;3.85;;;0.93;;
63008;SDS011;49099;28.428;-16.488;2023-03-03T06:18:44;3.30;;;0.90;;
63008;SDS011;49099;28.428;-16.488;2023-03-03T06:21:12;3.97;;;1.40;;
63008;SDS011;49099;28.428;-16.488;2023-03-03T06:23:39;2.03;;;0.68;;
63008;SDS011;49099;28.428;-16.488;2023-03-03T06:26:06;3.28;;;0.75;;
63008;SDS011;49099;28.428;-16.488;2023-03-03T06:28:34;3.38;;;0.73;;
63008;SDS011;49099;28.428;-16.488;2023-03-03T06:31:01;3.72;;;0.85;;
63008;SDS011;49099;28.428;-16.488;2023-03-03T06:33:28;1.02;;;0.60;;
63008;SDS011;49099;28.428;-16.488;2023-03-03T06:35:55;1.33;;;0.60;;
63008;SDS011;49099;28.428;-16.488;2023-03-03T06:38:22;2.65;;;0.70;;
63008;SDS011;49099;28.428;-16.488;2023-03-03T06:40:50;4.25;;;0.60;;
63008;SDS011;49099;28.428;-16.488;2023-03-03T06:43:17;7.50;;;0.95;;
63008;SDS011;49099;28.428;-16.488;2023-03-03T06:45:44;1.75;;;0.88;;
63008;SDS011;49099;28.428;-16.488;2023-03-03T06:48:11;3.97;;;0.80;;
63008;SDS011;49099;28.428;-16.488;2023-03-03T06:50:38;1.95;;;0.90;;
63008;SDS011;49099;28.428;-16.488;2023-03-03T06:55:40;6.57;;;1.08;;
63008;SDS011;49099;28.428;-16.488;2023-03-03T06:58:11;3.80;;;1.00;;
63008;SDS011;49099;28.428;-16.488;2023-03-03T07:00:41;2.75;;;1.00;;
63008;SDS011;49099;28.428;-16.488;2023-03-03T07:03:14;3.45;;;1.00;;
63008;SDS011;49099;28.428;-16.488;2023-03-03T07:05:43;4.18;;;1.10;;
63008;SDS011;49099;28.428;-16.488;2023-03-03T07:08:15;5.15;;;1.30;;
63008;SDS011;49099;28.428;-16.488;2023-03-03T07:10:48;5.75;;;1.30;;
63008;SDS011;49099;28.428;-16.488;2023-03-03T07:13:23;1.83;;;0.85;;
63008;SDS011;49099;28.428;-16.488;2023-03-03T07:15:53;3.42;;;0.93;;
63008;SDS011;49099;28.428;-16.488;2023-03-03T07:23:48;7.35;;;1.02;;
63008;SDS011;49099;28.428;-16.488;2023-03-03T07:26:20;3.25;;;1.10;;
63008;SDS011;49099;28.428;-16.488;2023-03-03T07:28:54;4.18;;;1.00;;
63008;SDS011;49099;28.428;-16.488;2023-03-03T07:33:56;6.72;;;1.58;;
63008;SDS011;49099;28.428;-16.488;2023-03-03T07:41:51;4.18;;;0.80;;
63008;SDS011;49099;28.428;-16.488;2023-03-03T07:44:20;3.17;;;0.93;;
63008;SDS011;49099;28.428;-16.488;2023-03-03T07:46:52;4.80;;;1.13;;
63008;SDS011;49099;28.428;-16.488;2023-03-03T07:49:33;6.25;;;1.25;;
63008;SDS011;49099;28.428;-16.488;2023-03-03T07:52:16;7.20;;;1.67;;
63008;SDS011;49099;28.428;-16.488;2023-03-03T07:54:49;2.80;;;1.00;;
63008;SDS011;49099;28.428;-16.488;2023-03-03T08:02:43;4.20;;;1.42;;
63008;SDS011;49099;28.428;-16.488;2023-03-03T08:10:49;9.25;;;1.40;;
63008;SDS011;49099;28.428;-16.488;2023-03-03T08:16:36;7.45;;;1.40;;
63008;SDS011;49099;28.428;-16.488;2023-03-03T08:18:44;9.32;;;1.20;;
63008;SDS011;49099;28.428;-16.488;2023-03-03T08:21:14;9.20;;;1.30;;
63008;SDS011;49099;28.428;-16.488;2023-03-03T08:23:43;8.48;;;2.00;;
63008;SDS011;49099;28.428;-16.488;2023-03-03T08:26:11;7.18;;;1.27;;
63008;SDS011;49099;28.428;-16.488;2023-03-03T08:28:39;4.82;;;1.13;;
63008;SDS011;49099;28.428;-16.488;2023-03-03T08:31:06;6.78;;;1.08;;
63008;SDS011;49099;28.428;-16.488;2023-03-03T08:33:50;6.55;;;1.20;;
63008;SDS011;49099;28.428;-16.488;2023-03-03T08:36:17;5.72;;;1.00;;
63008;SDS011;49099;28.428;-16.488;2023-03-03T08:38:44;5.20;;;1.10;;
63008;SDS011;49099;28.428;-16.488;2023-03-03T08:41:12;5.43;;;1.25;;
63008;SDS011;49099;28.428;-16.488;2023-03-03T08:43:39;4.47;;;1.25;;
63008;SDS011;49099;28.428;-16.488;2023-03-03T08:46:06;6.75;;;1.20;;
63008;SDS011;49099;28.428;-16.488;2023-03-03T08:48:36;5.47;;;1.10;;
63008;SDS011;49099;28.428;-16.488;2023-03-03T08:51:03;6.50;;;1.75;;
63008;SDS011;49099;28.428;-16.488;2023-03-03T08:53:30;6.85;;;1.52;;
63008;SDS011;49099;28.428;-16.488;2023-03-03T08:55:59;9.32;;;1.95;;
63008;SDS011;49099;28.428;-16.488;2023-03-03T08:58:26;10.60;;;2.17;;
63008;SDS011;49099;28.428;-16.488;2023-03-03T09:03:27;7.53;;;2.10;;
63008;SDS011;49099;28.428;-16.488;2023-03-03T09:05:55;12.80;;;2.53;;
63008;SDS011;49099;28.428;-16.488;2023-03-03T09:08:22;11.18;;;2.38;;
63008;SDS011;49099;28.428;-16.488;2023-03-03T09:10:49;18.60;;;3.38;;
63008;SDS011;49099;28.428;-16.488;2023-03-03T09:13:17;15.98;;;4.72;;
63008;SDS011;49099;28.428;-16.488;2023-03-03T09:15:46;18.05;;;5.82;;
63008;SDS011;49099;28.428;-16.488;2023-03-03T09:20:48;16.08;;;8.13;;
63008;SDS011;49099;28.428;-16.488;2023-03-03T09:34:37;9.05;;;1.70;;
63008;SDS011;49099;28.428;-16.488;2023-03-03T09:37:22;5.38;;;1.70;;
63008;SDS011;49099;28.428;-16.488;2023-03-03T09:39:53;7.45;;;2.28;;
63008;SDS011;49099;28.428;-16.488;2023-03-03T09:59:06;44.10;;;9.23;;
63008;SDS011;49099;28.428;-16.488;2023-03-03T10:02:02;60.00;;;11.27;;
63008;SDS011;49099;28.428;-16.488;2023-03-03T10:13:43;15.65;;;2.97;;
63008;SDS011;49099;28.428;-16.488;2023-03-03T10:26:11;10.10;;;2.03;;
63008;SDS011;49099;28.428;-16.488;2023-03-03T10:37:23;92.28;;;18.20;;
63008;SDS011;49099;28.428;-16.488;2023-03-03T10:40:25;36.00;;;8.68;;
63008;SDS011;49099;28.428;-16.488;2023-03-03T10:48:04;10.38;;;2.60;;
63008;SDS011;49099;28.428;-16.488;2023-03-03T10:53:34;8.57;;;2.50;;
63008;SDS011;49099;28.428;-16.488;2023-03-03T11:01:48;107.50;;;21.38;;
63008;SDS011;49099;28.428;-16.488;2023-03-03T11:07:19;122.05;;;23.17;;
63008;SDS011;49099;28.428;-16.488;2023-03-03T11:16:04;60.35;;;13.68;;
63008;SDS011;49099;28.428;-16.488;2023-03-03T11:23:40;32.45;;;6.05;;
63008;SDS011;49099;28.428;-16.488;2023-03-03T11:29:23;37.85;;;7.88;;
63008;SDS011;49099;28.428;-16.488;2023-03-03T11:37:39;63.05;;;11.95;;
63008;SDS011;49099;28.428;-16.488;2023-03-03T11:40:16;109.20;;;18.73;;
63008;SDS011;49099;28.428;-16.488;2023-03-03T11:46:10;73.93;;;12.68;;
63008;SDS011;49099;28.428;-16.488;2023-03-03T11:48:54;54.92;;;10.52;;
63008;SDS011;49099;28.428;-16.488;2023-03-03T11:57:49;57.65;;;11.48;;
63008;SDS011;49099;28.428;-16.488;2023-03-03T12:11:24;21.25;;;5.65;;
63008;SDS011;49099;28.428;-16.488;2023-03-03T12:16:56;25.67;;;5.80;;
63008;SDS011;49099;28.428;-16.488;2023-03-03T12:36:30;22.15;;;4.72;;
63008;SDS011;49099;28.428;-16.488;2023-03-03T12:53:24;22.23;;;5.05;;
63008;SDS011;49099;28.428;-16.488;2023-03-03T12:56:06;20.15;;;4.55;;
63008;SDS011;49099;28.428;-16.488;2023-03-03T12:58:51;28.00;;;5.47;;
63008;SDS011;49099;28.428;-16.488;2023-03-03T13:04:50;23.80;;;5.13;;
63008;SDS011;49099;28.428;-16.488;2023-03-03T13:07:21;21.50;;;4.40;;
63008;SDS011;49099;28.428;-16.488;2023-03-03T13:12:44;19.50;;;4.45;;
63008;SDS011;49099;28.428;-16.488;2023-03-03T13:15:20;20.38;;;4.10;;
63008;SDS011;49099;28.428;-16.488;2023-03-03T13:18:22;24.53;;;4.37;;
63008;SDS011;49099;28.428;-16.488;2023-03-03T13:23:52;34.33;;;6.93;;
63008;SDS011;49099;28.428;-16.488;2023-03-03T13:26:39;33.15;;;6.60;;
63008;SDS011;49099;28.428;-16.488;2023-03-03T13:37:11;18.73;;;4.43;;
63008;SDS011;49099;28.428;-16.488;2023-03-03T13:45:12;24.77;;;4.70;;
63008;SDS011;49099;28.428;-16.488;2023-03-03T13:47:52;21.10;;;4.40;;
63008;SDS011;49099;28.428;-16.488;2023-03-03T13:50:48;27.63;;;5.35;;
63008;SDS011;49099;28.428;-16.488;2023-03-03T14:10:49;25.25;;;4.60;;
63008;SDS011;49099;28.428;-16.488;2023-03-03T14:21:32;22.20;;;4.47;;
63008;SDS011;49099;28.428;-16.488;2023-03-03T14:26:51;22.40;;;4.78;;
63008;SDS011;49099;28.428;-16.488;2023-03-03T14:29:21;20.25;;;4.80;;
63008;SDS011;49099;28.428;-16.488;2023-03-03T14:31:48;16.92;;;3.50;;
63008;SDS011;49099;28.428;-16.488;2023-03-03T14:36:49;8.88;;;2.63;;
63008;SDS011;49099;28.428;-16.488;2023-03-03T14:40:03;10.38;;;2.35;;
63008;SDS011;49099;28.428;-16.488;2023-03-03T14:42:31;23.02;;;4.55;;
63008;SDS011;49099;28.428;-16.488;2023-03-03T14:47:56;20.58;;;4.22;;
63008;SDS011;49099;28.428;-16.488;2023-03-03T14:50:34;21.13;;;4.18;;
63008;SDS011;49099;28.428;-16.488;2023-03-03T14:56:52;16.35;;;3.17;;
63008;SDS011;49099;28.428;-16.488;2023-03-03T15:01:46;20.35;;;3.97;;
63008;SDS011;49099;28.428;-16.488;2023-03-03T15:04:23;28.35;;;4.85;;
63008;SDS011;49099;28.428;-16.488;2023-03-03T15:06:52;19.88;;;4.70;;
63008;SDS011;49099;28.428;-16.488;2023-03-03T15:09:37;15.40;;;3.28;;
63008;SDS011;49099;28.428;-16.488;2023-03-03T15:15:17;15.73;;;3.17;;
63008;SDS011;49099;28.428;-16.488;2023-03-03T15:31:13;7.10;;;2.10;;
63008;SDS011;49099;28.428;-16.488;2023-03-03T15:36:34;9.50;;;1.67;;
63008;SDS011;49099;28.428;-16.488;2023-03-03T15:42:36;6.50;;;1.80;;
63008;SDS011;49099;28.428;-16.488;2023-03-03T16:05:19;11.00;;;1.88;;
63008;SDS011;49099;28.428;-16.488;2023-03-03T16:11:07;12.48;;;2.63;;
63008;SDS011;49099;28.428;-16.488;2023-03-03T16:19:19;9.27;;;2.50;;
63008;SDS011;49099;28.428;-16.488;2023-03-03T16:27:58;8.57;;;2.03;;
63008;SDS011;49099;28.428;-16.488;2023-03-03T16:30:33;6.68;;;1.67;;
63008;SDS011;49099;28.428;-16.488;2023-03-03T16:36:22;9.48;;;2.15;;
63008;SDS011;49099;28.428;-16.488;2023-03-03T16:41:37;9.43;;;1.88;;
63008;SDS011;49099;28.428;-16.488;2023-03-03T16:44:29;10.32;;;1.92;;
63008;SDS011;49099;28.428;-16.488;2023-03-03T16:49:43;6.38;;;2.17;;
63008;SDS011;49099;28.428;-16.488;2023-03-03T16:58:22;6.18;;;1.60;;
63008;SDS011;49099;28.428;-16.488;2023-03-03T17:01:00;7.72;;;1.80;;
63008;SDS011;49099;28.428;-16.488;2023-03-03T17:09:43;19.17;;;4.30;;
63008;SDS011;49099;28.428;-16.488;2023-03-03T17:17:42;13.65;;;2.78;;
63008;SDS011;49099;28.428;-16.488;2023-03-03T17:20:25;24.40;;;4.78;;
63008;SDS011;49099;28.428;-16.488;2023-03-03T17:25:49;13.13;;;2.30;;
63008;SDS011;49099;28.428;-16.488;2023-03-03T17:31:19;11.77;;;2.70;;
63008;SDS011;49099;28.428;-16.488;2023-03-03T17:33:58;17.63;;;4.05;;
63008;SDS011;49099;28.428;-16.488;2023-03-03T17:39:43;8.13;;;1.70;;
63008;SDS011;49099;28.428;-16.488;2023-03-03T17:42:20;6.00;;;1.85;;
63008;SDS011;49099;28.428;-16.488;2023-03-03T17:45:00;7.60;;;1.80;;
63008;SDS011;49099;28.428;-16.488;2023-03-03T17:50:11;8.68;;;1.35;;
63008;SDS011;49099;28.428;-16.488;2023-03-03T17:58:59;13.25;;;2.47;;
63008;SDS011;49099;28.428;-16.488;2023-03-03T18:12:57;12.32;;;2.42;;
63008;SDS011;49099;28.428;-16.488;2023-03-03T18:23:37;15.32;;;3.13;;
63008;SDS011;49099;28.428;-16.488;2023-03-03T18:29:04;23.88;;;4.10;;
63008;SDS011;49099;28.428;-16.488;2023-03-03T18:36:52;18.60;;;3.25;;
63008;SDS011;49099;28.428;-16.488;2023-03-03T18:44:44;25.35;;;4.55;;
63008;SDS011;49099;28.428;-16.488;2023-03-03T18:47:13;19.63;;;3.92;;
63008;SDS011;49099;28.428;-16.488;2023-03-03T18:49:47;14.70;;;3.17;;
63008;SDS011;49099;28.428;-16.488;2023-03-03T18:52:22;18.27;;;3.20;;
63008;SDS011;49099;28.428;-16.488;2023-03-03T18:57:30;15.38;;;3.40;;
63008;SDS011;49099;28.428;-16.488;2023-03-03T19:00:11;15.48;;;3.33;;
63008;SDS011;49099;28.428;-16.488;2023-03-03T19:02:50;14.40;;;3.03;;
63008;SDS011;49099;28.428;-16.488;2023-03-03T19:05:23;20.77;;;4.00;;
63008;SDS011;49099;28.428;-16.488;2023-03-03T19:11:00;22.48;;;4.88;;
63008;SDS011;49099;28.428;-16.488;2023-03-03T19:16:02;24.30;;;4.43;;
63008;SDS011;49099;28.428;-16.488;2023-03-03T19:19:13;8.38;;;2.10;;
63008;SDS011;49099;28.428;-16.488;2023-03-03T19:21:30;8.10;;;1.90;;
63008;SDS011;49099;28.428;-16.488;2023-03-03T19:31:47;11.93;;;2.30;;
63008;SDS011;49099;28.428;-16.488;2023-03-03T19:34:27;15.52;;;3.45;;
63008;SDS011;49099;28.428;-16.488;2023-03-03T19:48:57;15.93;;;3.08;;
63008;SDS011;49099;28.428;-16.488;2023-03-03T20:00:13;23.80;;;4.53;;
63008;SDS011;49099;28.428;-16.488;2023-03-03T20:03:11;30.10;;;4.78;;
63008;SDS011;49099;28.428;-16.488;2023-03-03T20:08:20;10.48;;;2.60;;
63008;SDS011;49099;28.428;-16.488;2023-03-03T20:16:40;19.92;;;3.95;;
63008;SDS011;49099;28.428;-16.488;2023-03-03T20:24:48;17.55;;;3.58;;
63008;SDS011;49099;28.428;-16.488;2023-03-03T20:41:13;9.05;;;2.50;;
63008;SDS011;49099;28.428;-16.488;2023-03-03T20:44:23;10.10;;;2.00;;
63008;SDS011;49099;28.428;-16.488;2023-03-03T21:01:11;28.02;;;6.40;;
63008;SDS011;49099;28.428;-16.488;2023-03-03T21:03:43;34.80;;;7.50;;
63008;SDS011;49099;28.428;-16.488;2023-03-03T21:06:11;40.63;;;8.93;;
63008;SDS011;49099;28.428;-16.488;2023-03-03T21:11:11;43.25;;;7.47;;
63008;SDS011;49099;28.428;-16.488;2023-03-03T21:13:46;21.60;;;4.50;;
63008;SDS011;49099;28.428;-16.488;2023-03-03T21:18:57;43.60;;;8.60;;
63008;SDS011;49099;28.428;-16.488;2023-03-03T21:21:39;16.83;;;3.67;;
63008;SDS011;49099;28.428;-16.488;2023-03-03T21:24:09;19.15;;;4.30;;
63008;SDS011;49099;28.428;-16.488;2023-03-03T21:26:58;21.33;;;4.25;;
63008;SDS011;49099;28.428;-16.488;2023-03-03T21:29:27;10.85;;;2.92;;
63008;SDS011;49099;28.428;-16.488;2023-03-03T21:31:56;13.70;;;2.78;;
63008;SDS011;49099;28.428;-16.488;2023-03-03T21:34:28;4.53;;;1.45;;
63008;SDS011;49099;28.428;-16.488;2023-03-03T21:37:02;1.75;;;0.90;;
63008;SDS011;49099;28.428;-16.488;2023-03-03T21:42:05;7.40;;;2.05;;
63008;SDS011;49099;28.428;-16.488;2023-03-03T21:44:35;7.13;;;1.50;;
63008;SDS011;49099;28.428;-16.488;2023-03-03T21:47:11;5.60;;;1.65;;
63008;SDS011;49099;28.428;-16.488;2023-03-03T21:49:41;4.97;;;1.27;;
63008;SDS011;49099;28.428;-16.488;2023-03-03T21:52:09;36.22;;;6.88;;
63008;SDS011;49099;28.428;-16.488;2023-03-03T21:54:37;26.30;;;5.80;;
63008;SDS011;49099;28.428;-16.488;2023-03-03T21:57:05;38.08;;;7.55;;
63008;SDS011;49099;28.428;-16.488;2023-03-03T21:59:32;36.95;;;7.85;;
63008;SDS011;49099;28.428;-16.488;2023-03-03T22:01:59;38.10;;;8.35;;
63008;SDS011;49099;28.428;-16.488;2023-03-03T22:04:26;39.95;;;7.43;;
63008;SDS011;49099;28.428;-16.488;2023-03-03T22:06:53;50.00;;;9.63;;
63008;SDS011;49099;28.428;-16.488;2023-03-03T22:09:21;45.88;;;8.43;;
63008;SDS011;49099;28.428;-16.488;2023-03-03T22:11:48;37.90;;;7.60;;
63008;SDS011;49099;28.428;-16.488;2023-03-03T22:14:15;47.20;;;8.07;;
63008;SDS011;49099;28.428;-16.488;2023-03-03T22:16:43;40.13;;;8.95;;
63008;SDS011;49099;28.428;-16.488;2023-03-03T22:19:10;48.03;;;8.77;;
63008;SDS011;49099;28.428;-16.488;2023-03-03T22:21:37;64.22;;;11.45;;
63008;SDS011;49099;28.428;-16.488;2023-03-03T22:24:06;59.00;;;11.48;;
63008;SDS011;49099;28.428;-16.488;2023-03-03T22:26:34;57.03;;;10.80;;
63008;SDS011;49099;28.428;-16.488;2023-03-03T22:29:01;53.03;;;10.35;;
63008;SDS011;49099;28.428;-16.488;2023-03-03T22:31:29;71.07;;;14.10;;
63008;SDS011;49099;28.428;-16.488;2023-03-03T22:33:57;117.95;;;19.42;;
63008;SDS011;49099;28.428;-16.488;2023-03-03T22:36:24;103.50;;;17.35;;
63008;SDS011;49099;28.428;-16.488;2023-03-03T22:38:51;132.18;;;21.20;;
63008;SDS011;49099;28.428;-16.488;2023-03-03T22:41:20;91.32;;;16.63;;